sensor_id;sensor_type;location;lat;lon;timestamp;P1;durP1;ratioP1;P2;durP2;ratioP2
11931;SDS011;6025;51.368;6.788;2022-10-20T00:01:44;5.27;;;3.63;;
11931;SDS011;6025;51.368;6.788;2022-10-20T00:06:35;8.70;;;3.50;;
11931;SDS011;6025;51.368;6.788;2022-10-20T00:11:27;5.10;;;3.43;;
11931;SDS011;6025;51.368;6.788;2022-10-20T00:16:19;9.57;;;3.87;;
11931;SDS011;6025;51.368;6.788;2022-10-20T00:21:14;7.60;;;3.70;;
11931;SDS011;6025;51.368;6.788;2022-10-20T00:26:07;4.97;;;3.67;;
11931;SDS011;6025;51.368;6.788;2022-10-20T00:31:01;7.57;;;4.07;;
11931;SDS011;6025;51.368;6.788;2022-10-20T00:35:53;6.43;;;4.10;;
11931;SDS011;6025;51.368;6.788;2022-10-20T00:40:46;6.73;;;3.80;;
11931;SDS011;6025;51.368;6.788;2022-10-20T00:45:37;4.77;;;3.30;;
11931;SDS011;6025;51.368;6.788;2022-10-20T00:50:30;6.23;;;3.77;;
11931;SDS011;6025;51.368;6.788;2022-10-20T00:55:25;5.47;;;3.80;;
11931;SDS011;6025;51.368;6.788;2022-10-20T01:00:20;7.33;;;4.00;;
11931;SDS011;6025;51.368;6.788;2022-10-20T01:05:12;5.83;;;3.60;;
11931;SDS011;6025;51.368;6.788;2022-10-20T01:10:04;5.37;;;4.30;;
11931;SDS011;6025;51.368;6.788;2022-10-20T01:15:00;7.67;;;4.30;;
11931;SDS011;6025;51.368;6.788;2022-10-20T01:20:02;6.20;;;3.83;;
11931;SDS011;6025;51.368;6.788;2022-10-20T01:25:20;7.13;;;4.33;;
11931;SDS011;6025;51.368;6.788;2022-10-20T01:30:18;6.53;;;4.00;;
11931;SDS011;6025;51.368;6.788;2022-10-20T01:35:12;5.97;;;4.43;;
11931;SDS011;6025;51.368;6.788;2022-10-20T01:40:09;4.67;;;3.73;;
11931;SDS011;6025;51.368;6.788;2022-10-20T01:45:03;6.87;;;4.70;;
11931;SDS011;6025;51.368;6.788;2022-10-20T01:49:57;7.53;;;4.03;;
11931;SDS011;6025;51.368;6.788;2022-10-20T01:54:49;7.67;;;4.47;;
11931;SDS011;6025;51.368;6.788;2022-10-20T01:59:41;5.60;;;4.63;;
11931;SDS011;6025;51.368;6.788;2022-10-20T02:04:42;7.77;;;4.30;;
11931;SDS011;6025;51.368;6.788;2022-10-20T02:09:39;9.03;;;4.43;;
11931;SDS011;6025;51.368;6.788;2022-10-20T02:14:34;7.93;;;4.80;;
11931;SDS011;6025;51.368;6.788;2022-10-20T02:19:28;7.60;;;4.70;;
11931;SDS011;6025;51.368;6.788;2022-10-20T02:24:25;7.87;;;4.53;;
11931;SDS011;6025;51.368;6.788;2022-10-20T02:29:20;8.03;;;5.00;;
11931;SDS011;6025;51.368;6.788;2022-10-20T02:34:16;8.17;;;4.87;;
11931;SDS011;6025;51.368;6.788;2022-10-20T02:39:08;5.63;;;4.50;;
11931;SDS011;6025;51.368;6.788;2022-10-20T02:44:00;5.37;;;4.33;;
11931;SDS011;6025;51.368;6.788;2022-10-20T02:48:53;7.80;;;4.57;;
11931;SDS011;6025;51.368;6.788;2022-10-20T02:53:44;9.23;;;4.63;;
11931;SDS011;6025;51.368;6.788;2022-10-20T02:58:36;8.20;;;4.57;;
11931;SDS011;6025;51.368;6.788;2022-10-20T03:03:27;7.20;;;4.90;;
11931;SDS011;6025;51.368;6.788;2022-10-20T03:08:20;9.70;;;4.90;;
11931;SDS011;6025;51.368;6.788;2022-10-20T03:13:12;8.80;;;5.27;;
11931;SDS011;6025;51.368;6.788;2022-10-20T03:18:04;8.83;;;4.90;;
11931;SDS011;6025;51.368;6.788;2022-10-20T03:22:56;7.00;;;4.63;;
11931;SDS011;6025;51.368;6.788;2022-10-20T03:27:49;5.80;;;4.50;;
11931;SDS011;6025;51.368;6.788;2022-10-20T03:32:40;9.47;;;5.00;;
11931;SDS011;6025;51.368;6.788;2022-10-20T03:37:32;10.13;;;5.03;;
11931;SDS011;6025;51.368;6.788;2022-10-20T03:42:23;6.60;;;4.60;;
11931;SDS011;6025;51.368;6.788;2022-10-20T03:47:16;8.60;;;4.60;;
11931;SDS011;6025;51.368;6.788;2022-10-20T03:52:07;6.53;;;4.90;;
11931;SDS011;6025;51.368;6.788;2022-10-20T03:56:59;7.70;;;4.80;;
11931;SDS011;6025;51.368;6.788;2022-10-20T04:01:50;7.60;;;5.33;;
11931;SDS011;6025;51.368;6.788;2022-10-20T04:06:45;5.93;;;5.20;;
11931;SDS011;6025;51.368;6.788;2022-10-20T04:11:36;8.50;;;4.90;;
11931;SDS011;6025;51.368;6.788;2022-10-20T04:16:28;9.37;;;5.07;;
11931;SDS011;6025;51.368;6.788;2022-10-20T04:21:20;6.87;;;5.10;;
11931;SDS011;6025;51.368;6.788;2022-10-20T04:26:14;7.97;;;5.67;;
11931;SDS011;6025;51.368;6.788;2022-10-20T04:31:06;7.43;;;5.33;;
11931;SDS011;6025;51.368;6.788;2022-10-20T04:35:57;11.20;;;6.00;;
11931;SDS011;6025;51.368;6.788;2022-10-20T04:40:52;8.30;;;5.80;;
11931;SDS011;6025;51.368;6.788;2022-10-20T04:45:45;10.73;;;6.17;;
11931;SDS011;6025;51.368;6.788;2022-10-20T04:50:37;8.13;;;5.30;;
11931;SDS011;6025;51.368;6.788;2022-10-20T04:55:29;8.27;;;5.63;;
11931;SDS011;6025;51.368;6.788;2022-10-20T05:00:20;8.47;;;6.33;;
11931;SDS011;6025;51.368;6.788;2022-10-20T05:05:13;8.93;;;6.57;;
11931;SDS011;6025;51.368;6.788;2022-10-20T05:10:05;8.70;;;6.90;;
11931;SDS011;6025;51.368;6.788;2022-10-20T05:14:57;8.67;;;6.67;;
11931;SDS011;6025;51.368;6.788;2022-10-20T05:19:49;8.90;;;6.30;;
11931;SDS011;6025;51.368;6.788;2022-10-20T05:24:42;10.77;;;6.37;;
11931;SDS011;6025;51.368;6.788;2022-10-20T05:29:33;6.78;;;5.47;;
11931;SDS011;6025;51.368;6.788;2022-10-20T05:34:25;7.28;;;5.63;;
11931;SDS011;6025;51.368;6.788;2022-10-20T05:39:16;11.23;;;5.97;;
11931;SDS011;6025;51.368;6.788;2022-10-20T05:44:11;6.05;;;5.18;;
11931;SDS011;6025;51.368;6.788;2022-10-20T05:49:02;8.68;;;5.10;;
11931;SDS011;6025;51.368;6.788;2022-10-20T05:53:54;7.22;;;5.13;;
11931;SDS011;6025;51.368;6.788;2022-10-20T05:58:46;5.97;;;5.37;;
11931;SDS011;6025;51.368;6.788;2022-10-20T06:03:40;6.13;;;4.50;;
11931;SDS011;6025;51.368;6.788;2022-10-20T06:08:31;7.63;;;5.00;;
11931;SDS011;6025;51.368;6.788;2022-10-20T06:13:24;5.93;;;5.10;;
11931;SDS011;6025;51.368;6.788;2022-10-20T06:18:15;6.03;;;4.80;;
11931;SDS011;6025;51.368;6.788;2022-10-20T06:23:08;8.18;;;4.70;;
11931;SDS011;6025;51.368;6.788;2022-10-20T06:28:00;7.32;;;4.68;;
11931;SDS011;6025;51.368;6.788;2022-10-20T06:32:52;8.32;;;4.78;;
11931;SDS011;6025;51.368;6.788;2022-10-20T06:37:44;9.55;;;4.93;;
11931;SDS011;6025;51.368;6.788;2022-10-20T06:42:36;4.78;;;4.35;;
11931;SDS011;6025;51.368;6.788;2022-10-20T06:47:28;7.68;;;5.07;;
11931;SDS011;6025;51.368;6.788;2022-10-20T06:52:20;8.32;;;5.03;;
11931;SDS011;6025;51.368;6.788;2022-10-20T06:57:11;6.75;;;4.55;;
11931;SDS011;6025;51.368;6.788;2022-10-20T07:02:05;7.53;;;4.70;;
11931;SDS011;6025;51.368;6.788;2022-10-20T07:06:58;9.15;;;5.53;;
11931;SDS011;6025;51.368;6.788;2022-10-20T07:11:50;7.20;;;5.05;;
11931;SDS011;6025;51.368;6.788;2022-10-20T07:16:42;5.63;;;4.75;;
11931;SDS011;6025;51.368;6.788;2022-10-20T07:21:34;6.03;;;4.75;;
11931;SDS011;6025;51.368;6.788;2022-10-20T07:26:27;9.93;;;5.60;;
11931;SDS011;6025;51.368;6.788;2022-10-20T07:31:19;7.82;;;4.95;;
11931;SDS011;6025;51.368;6.788;2022-10-20T07:36:12;7.25;;;5.18;;
11931;SDS011;6025;51.368;6.788;2022-10-20T07:41:06;7.40;;;5.20;;
11931;SDS011;6025;51.368;6.788;2022-10-20T07:45:58;6.20;;;5.10;;
11931;SDS011;6025;51.368;6.788;2022-10-20T07:50:49;10.82;;;5.88;;
11931;SDS011;6025;51.368;6.788;2022-10-20T07:55:41;8.90;;;5.88;;
11931;SDS011;6025;51.368;6.788;2022-10-20T08:00:34;7.22;;;5.60;;
11931;SDS011;6025;51.368;6.788;2022-10-20T08:05:25;7.32;;;5.07;;
11931;SDS011;6025;51.368;6.788;2022-10-20T08:10:18;8.40;;;5.28;;
11931;SDS011;6025;51.368;6.788;2022-10-20T08:15:10;8.98;;;5.85;;
11931;SDS011;6025;51.368;6.788;2022-10-20T08:20:03;10.60;;;5.90;;
11931;SDS011;6025;51.368;6.788;2022-10-20T08:24:55;7.40;;;5.30;;
11931;SDS011;6025;51.368;6.788;2022-10-20T08:29:46;8.52;;;5.68;;
11931;SDS011;6025;51.368;6.788;2022-10-20T08:34:38;8.77;;;5.47;;
11931;SDS011;6025;51.368;6.788;2022-10-20T08:39:31;8.63;;;5.90;;
11931;SDS011;6025;51.368;6.788;2022-10-20T08:44:24;8.82;;;5.45;;
11931;SDS011;6025;51.368;6.788;2022-10-20T08:49:18;11.23;;;5.70;;
11931;SDS011;6025;51.368;6.788;2022-10-20T08:54:11;7.40;;;5.57;;
11931;SDS011;6025;51.368;6.788;2022-10-20T08:59:13;10.20;;;5.30;;
11931;SDS011;6025;51.368;6.788;2022-10-20T09:04:14;7.75;;;5.40;;
11931;SDS011;6025;51.368;6.788;2022-10-20T09:09:09;8.68;;;5.45;;
11931;SDS011;6025;51.368;6.788;2022-10-20T09:14:01;7.60;;;5.40;;
11931;SDS011;6025;51.368;6.788;2022-10-20T09:18:54;7.38;;;5.75;;
11931;SDS011;6025;51.368;6.788;2022-10-20T09:23:48;9.35;;;5.22;;
11931;SDS011;6025;51.368;6.788;2022-10-20T09:28:42;7.93;;;5.18;;
11931;SDS011;6025;51.368;6.788;2022-10-20T09:33:33;6.75;;;5.30;;
11931;SDS011;6025;51.368;6.788;2022-10-20T09:38:26;7.03;;;5.13;;
11931;SDS011;6025;51.368;6.788;2022-10-20T09:43:19;7.45;;;5.65;;
11931;SDS011;6025;51.368;6.788;2022-10-20T09:48:15;9.50;;;5.60;;
11931;SDS011;6025;51.368;6.788;2022-10-20T09:53:14;10.68;;;5.88;;
11931;SDS011;6025;51.368;6.788;2022-10-20T09:58:13;8.18;;;5.25;;
11931;SDS011;6025;51.368;6.788;2022-10-20T10:03:13;12.50;;;5.63;;
11931;SDS011;6025;51.368;6.788;2022-10-20T10:08:12;9.23;;;5.25;;
11931;SDS011;6025;51.368;6.788;2022-10-20T10:13:04;7.22;;;5.32;;
11931;SDS011;6025;51.368;6.788;2022-10-20T10:17:57;7.10;;;5.60;;
11931;SDS011;6025;51.368;6.788;2022-10-20T10:22:49;8.13;;;5.72;;
11931;SDS011;6025;51.368;6.788;2022-10-20T10:27:41;8.88;;;5.50;;
11931;SDS011;6025;51.368;6.788;2022-10-20T10:32:47;7.45;;;6.50;;
11931;SDS011;6025;51.368;6.788;2022-10-20T10:37:41;7.32;;;6.25;;
11931;SDS011;6025;51.368;6.788;2022-10-20T10:47:54;12.02;;;6.13;;
11931;SDS011;6025;51.368;6.788;2022-10-20T10:53:09;7.78;;;6.15;;
11931;SDS011;6025;51.368;6.788;2022-10-20T10:58:09;7.78;;;5.45;;
11931;SDS011;6025;51.368;6.788;2022-10-20T11:03:12;12.80;;;5.82;;
11931;SDS011;6025;51.368;6.788;2022-10-20T11:08:12;8.15;;;5.57;;
11931;SDS011;6025;51.368;6.788;2022-10-20T11:13:19;6.63;;;5.85;;
11931;SDS011;6025;51.368;6.788;2022-10-20T11:18:17;9.13;;;6.35;;
11931;SDS011;6025;51.368;6.788;2022-10-20T11:23:43;9.57;;;5.82;;
11931;SDS011;6025;51.368;6.788;2022-10-20T11:28:44;10.38;;;6.30;;
11931;SDS011;6025;51.368;6.788;2022-10-20T11:33:39;9.68;;;6.53;;
11931;SDS011;6025;51.368;6.788;2022-10-20T11:38:35;8.73;;;6.47;;
11931;SDS011;6025;51.368;6.788;2022-10-20T11:43:33;10.32;;;7.40;;
11931;SDS011;6025;51.368;6.788;2022-10-20T11:48:28;9.70;;;7.70;;
11931;SDS011;6025;51.368;6.788;2022-10-20T11:53:28;13.82;;;8.75;;
11931;SDS011;6025;51.368;6.788;2022-10-20T11:58:33;11.07;;;8.70;;
11931;SDS011;6025;51.368;6.788;2022-10-20T12:03:40;15.82;;;9.77;;
11931;SDS011;6025;51.368;6.788;2022-10-20T12:13:54;13.73;;;10.75;;
11931;SDS011;6025;51.368;6.788;2022-10-20T12:19:04;17.27;;;10.73;;
11931;SDS011;6025;51.368;6.788;2022-10-20T12:23:57;16.17;;;10.45;;
11931;SDS011;6025;51.368;6.788;2022-10-20T12:28:58;14.30;;;10.85;;
11931;SDS011;6025;51.368;6.788;2022-10-20T12:33:58;16.58;;;11.30;;
11931;SDS011;6025;51.368;6.788;2022-10-20T12:38:51;14.25;;;11.27;;
11931;SDS011;6025;51.368;6.788;2022-10-20T12:43:46;14.18;;;11.10;;
11931;SDS011;6025;51.368;6.788;2022-10-20T12:48:41;15.68;;;12.30;;
11931;SDS011;6025;51.368;6.788;2022-10-20T12:53:35;15.98;;;11.52;;
11931;SDS011;6025;51.368;6.788;2022-10-20T12:58:28;16.05;;;11.45;;
11931;SDS011;6025;51.368;6.788;2022-10-20T13:03:34;13.77;;;10.57;;
11931;SDS011;6025;51.368;6.788;2022-10-20T13:08:41;13.93;;;10.18;;
11931;SDS011;6025;51.368;6.788;2022-10-20T13:19:26;12.30;;;10.45;;
11931;SDS011;6025;51.368;6.788;2022-10-20T13:24:26;16.17;;;10.07;;
11931;SDS011;6025;51.368;6.788;2022-10-20T13:29:27;13.45;;;9.48;;
11931;SDS011;6025;51.368;6.788;2022-10-20T13:34:24;11.43;;;9.40;;
11931;SDS011;6025;51.368;6.788;2022-10-20T13:39:18;13.40;;;8.55;;
11931;SDS011;6025;51.368;6.788;2022-10-20T13:44:19;11.57;;;9.38;;
11931;SDS011;6025;51.368;6.788;2022-10-20T13:49:28;12.15;;;8.93;;
11931;SDS011;6025;51.368;6.788;2022-10-20T13:54:28;11.95;;;8.65;;
11931;SDS011;6025;51.368;6.788;2022-10-20T13:59:22;9.88;;;7.85;;
11931;SDS011;6025;51.368;6.788;2022-10-20T14:04:18;10.30;;;7.47;;
11931;SDS011;6025;51.368;6.788;2022-10-20T14:09:16;10.57;;;7.63;;
11931;SDS011;6025;51.368;6.788;2022-10-20T14:14:10;9.73;;;7.28;;
11931;SDS011;6025;51.368;6.788;2022-10-20T14:19:05;9.20;;;7.50;;
11931;SDS011;6025;51.368;6.788;2022-10-20T14:23:59;11.27;;;7.57;;
11931;SDS011;6025;51.368;6.788;2022-10-20T14:28:54;9.05;;;7.45;;
11931;SDS011;6025;51.368;6.788;2022-10-20T14:33:46;11.35;;;7.35;;
11931;SDS011;6025;51.368;6.788;2022-10-20T14:38:38;8.90;;;8.00;;
11931;SDS011;6025;51.368;6.788;2022-10-20T14:43:32;9.43;;;7.97;;
11931;SDS011;6025;51.368;6.788;2022-10-20T14:48:30;10.98;;;8.10;;
11931;SDS011;6025;51.368;6.788;2022-10-20T14:53:28;10.23;;;8.02;;
11931;SDS011;6025;51.368;6.788;2022-10-20T14:58:29;13.13;;;7.78;;
11931;SDS011;6025;51.368;6.788;2022-10-20T15:03:25;12.82;;;7.80;;
11931;SDS011;6025;51.368;6.788;2022-10-20T15:08:23;9.77;;;7.68;;
11931;SDS011;6025;51.368;6.788;2022-10-20T15:13:19;11.38;;;7.80;;
11931;SDS011;6025;51.368;6.788;2022-10-20T15:18:13;9.60;;;8.10;;
11931;SDS011;6025;51.368;6.788;2022-10-20T15:23:07;11.98;;;8.13;;
11931;SDS011;6025;51.368;6.788;2022-10-20T15:28:01;11.52;;;7.85;;
11931;SDS011;6025;51.368;6.788;2022-10-20T15:32:53;10.70;;;8.50;;
11931;SDS011;6025;51.368;6.788;2022-10-20T15:37:46;12.48;;;7.78;;
11931;SDS011;6025;51.368;6.788;2022-10-20T15:42:39;9.05;;;7.82;;
11931;SDS011;6025;51.368;6.788;2022-10-20T15:47:32;11.07;;;7.47;;
11931;SDS011;6025;51.368;6.788;2022-10-20T15:52:23;9.85;;;7.93;;
11931;SDS011;6025;51.368;6.788;2022-10-20T15:57:15;15.15;;;7.95;;
11931;SDS011;6025;51.368;6.788;2022-10-20T16:02:09;12.52;;;8.23;;
11931;SDS011;6025;51.368;6.788;2022-10-20T16:07:03;10.27;;;8.38;;
11931;SDS011;6025;51.368;6.788;2022-10-20T16:11:55;11.98;;;8.05;;
11931;SDS011;6025;51.368;6.788;2022-10-20T16:16:46;13.82;;;8.50;;
11931;SDS011;6025;51.368;6.788;2022-10-20T16:21:38;12.77;;;8.88;;
11931;SDS011;6025;51.368;6.788;2022-10-20T16:26:31;17.17;;;9.05;;
11931;SDS011;6025;51.368;6.788;2022-10-20T16:31:23;13.73;;;9.18;;
11931;SDS011;6025;51.368;6.788;2022-10-20T16:36:17;15.18;;;9.40;;
11931;SDS011;6025;51.368;6.788;2022-10-20T16:41:11;10.43;;;8.77;;
11931;SDS011;6025;51.368;6.788;2022-10-20T16:46:05;12.00;;;9.20;;
11931;SDS011;6025;51.368;6.788;2022-10-20T16:50:57;16.05;;;9.63;;
11931;SDS011;6025;51.368;6.788;2022-10-20T16:55:49;14.52;;;9.57;;
11931;SDS011;6025;51.368;6.788;2022-10-20T17:00:42;14.13;;;9.25;;
11931;SDS011;6025;51.368;6.788;2022-10-20T17:05:35;14.38;;;9.95;;
11931;SDS011;6025;51.368;6.788;2022-10-20T17:10:26;15.25;;;9.15;;
11931;SDS011;6025;51.368;6.788;2022-10-20T17:15:18;16.27;;;9.93;;
11931;SDS011;6025;51.368;6.788;2022-10-20T17:20:10;14.25;;;9.52;;
11931;SDS011;6025;51.368;6.788;2022-10-20T17:25:03;13.68;;;9.45;;
11931;SDS011;6025;51.368;6.788;2022-10-20T17:29:55;22.27;;;9.93;;
11931;SDS011;6025;51.368;6.788;2022-10-20T17:34:46;12.23;;;9.93;;
11931;SDS011;6025;51.368;6.788;2022-10-20T17:39:38;12.70;;;9.98;;
11931;SDS011;6025;51.368;6.788;2022-10-20T17:44:31;16.02;;;9.70;;
11931;SDS011;6025;51.368;6.788;2022-10-20T17:49:22;14.38;;;10.13;;
11931;SDS011;6025;51.368;6.788;2022-10-20T17:54:14;13.02;;;9.98;;
11931;SDS011;6025;51.368;6.788;2022-10-20T17:59:05;16.48;;;10.07;;
11931;SDS011;6025;51.368;6.788;2022-10-20T18:03:59;16.10;;;10.23;;
11931;SDS011;6025;51.368;6.788;2022-10-20T18:08:52;14.60;;;9.48;;
11931;SDS011;6025;51.368;6.788;2022-10-20T18:13:44;13.88;;;9.43;;
11931;SDS011;6025;51.368;6.788;2022-10-20T18:18:36;14.60;;;8.75;;
11931;SDS011;6025;51.368;6.788;2022-10-20T18:23:29;12.32;;;9.05;;
11931;SDS011;6025;51.368;6.788;2022-10-20T18:28:22;11.00;;;8.52;;
11931;SDS011;6025;51.368;6.788;2022-10-20T18:33:14;15.13;;;9.35;;
11931;SDS011;6025;51.368;6.788;2022-10-20T18:38:05;13.25;;;9.43;;
11931;SDS011;6025;51.368;6.788;2022-10-20T18:42:58;13.25;;;9.38;;
11931;SDS011;6025;51.368;6.788;2022-10-20T18:47:50;12.38;;;8.52;;
11931;SDS011;6025;51.368;6.788;2022-10-20T18:52:42;13.00;;;8.82;;
11931;SDS011;6025;51.368;6.788;2022-10-20T18:57:33;15.82;;;8.70;;
11931;SDS011;6025;51.368;6.788;2022-10-20T19:02:29;13.40;;;8.77;;
11931;SDS011;6025;51.368;6.788;2022-10-20T19:07:20;10.65;;;8.55;;
11931;SDS011;6025;51.368;6.788;2022-10-20T19:12:12;12.88;;;9.07;;
11931;SDS011;6025;51.368;6.788;2022-10-20T19:17:03;13.02;;;8.77;;
11931;SDS011;6025;51.368;6.788;2022-10-20T19:21:56;12.30;;;8.73;;
11931;SDS011;6025;51.368;6.788;2022-10-20T19:26:49;15.13;;;8.93;;
11931;SDS011;6025;51.368;6.788;2022-10-20T19:31:43;11.93;;;8.82;;
11931;SDS011;6025;51.368;6.788;2022-10-20T19:36:36;14.10;;;8.80;;
11931;SDS011;6025;51.368;6.788;2022-10-20T19:41:31;12.63;;;8.93;;
11931;SDS011;6025;51.368;6.788;2022-10-20T19:46:23;12.60;;;8.40;;
11931;SDS011;6025;51.368;6.788;2022-10-20T19:51:14;11.35;;;8.85;;
11931;SDS011;6025;51.368;6.788;2022-10-20T19:56:07;13.40;;;8.85;;
11931;SDS011;6025;51.368;6.788;2022-10-20T20:01:01;11.90;;;8.75;;
11931;SDS011;6025;51.368;6.788;2022-10-20T20:05:56;11.18;;;8.27;;
11931;SDS011;6025;51.368;6.788;2022-10-20T20:10:49;10.93;;;8.27;;
11931;SDS011;6025;51.368;6.788;2022-10-20T20:15:41;10.27;;;8.35;;
11931;SDS011;6025;51.368;6.788;2022-10-20T20:20:37;11.15;;;7.88;;
11931;SDS011;6025;51.368;6.788;2022-10-20T20:25:28;10.90;;;7.45;;
11931;SDS011;6025;51.368;6.788;2022-10-20T20:30:20;12.00;;;7.75;;
11931;SDS011;6025;51.368;6.788;2022-10-20T20:35:12;13.90;;;8.18;;
11931;SDS011;6025;51.368;6.788;2022-10-20T20:40:06;12.13;;;8.02;;
11931;SDS011;6025;51.368;6.788;2022-10-20T20:44:58;9.05;;;7.85;;
11931;SDS011;6025;51.368;6.788;2022-10-20T20:49:50;12.68;;;8.43;;
11931;SDS011;6025;51.368;6.788;2022-10-20T20:54:42;13.15;;;7.70;;
11931;SDS011;6025;51.368;6.788;2022-10-20T20:59:35;13.77;;;8.32;;
11931;SDS011;6025;51.368;6.788;2022-10-20T21:04:26;10.82;;;8.18;;
11931;SDS011;6025;51.368;6.788;2022-10-20T21:09:18;8.30;;;7.30;;
11931;SDS011;6025;51.368;6.788;2022-10-20T21:14:10;10.98;;;8.18;;
11931;SDS011;6025;51.368;6.788;2022-10-20T21:19:03;10.40;;;7.70;;
11931;SDS011;6025;51.368;6.788;2022-10-20T21:23:57;14.38;;;7.70;;
11931;SDS011;6025;51.368;6.788;2022-10-20T21:28:49;10.05;;;7.32;;
11931;SDS011;6025;51.368;6.788;2022-10-20T21:33:42;11.88;;;7.85;;
11931;SDS011;6025;51.368;6.788;2022-10-20T21:38:35;9.70;;;7.75;;
11931;SDS011;6025;51.368;6.788;2022-10-20T21:43:28;13.18;;;8.23;;
11931;SDS011;6025;51.368;6.788;2022-10-20T21:48:20;11.18;;;8.20;;
11931;SDS011;6025;51.368;6.788;2022-10-20T21:53:11;12.70;;;8.02;;
11931;SDS011;6025;51.368;6.788;2022-10-20T21:58:04;12.77;;;7.72;;
11931;SDS011;6025;51.368;6.788;2022-10-20T22:02:55;14.27;;;8.50;;
11931;SDS011;6025;51.368;6.788;2022-10-20T22:07:47;17.55;;;9.32;;
11931;SDS011;6025;51.368;6.788;2022-10-20T22:12:38;11.60;;;7.75;;
11931;SDS011;6025;51.368;6.788;2022-10-20T22:17:31;13.02;;;8.75;;
11931;SDS011;6025;51.368;6.788;2022-10-20T22:22:23;12.57;;;9.10;;
11931;SDS011;6025;51.368;6.788;2022-10-20T22:27:14;14.98;;;8.57;;
11931;SDS011;6025;51.368;6.788;2022-10-20T22:32:06;13.63;;;9.65;;
11931;SDS011;6025;51.368;6.788;2022-10-20T22:36:59;13.70;;;9.25;;
11931;SDS011;6025;51.368;6.788;2022-10-20T22:41:50;20.77;;;9.82;;
11931;SDS011;6025;51.368;6.788;2022-10-20T22:46:42;13.80;;;10.32;;
11931;SDS011;6025;51.368;6.788;2022-10-20T22:51:33;15.10;;;9.85;;
11931;SDS011;6025;51.368;6.788;2022-10-20T22:56:26;15.23;;;10.48;;
11931;SDS011;6025;51.368;6.788;2022-10-20T23:01:19;18.20;;;11.63;;
11931;SDS011;6025;51.368;6.788;2022-10-20T23:06:12;18.85;;;11.50;;
11931;SDS011;6025;51.368;6.788;2022-10-20T23:11:05;18.35;;;12.05;;
11931;SDS011;6025;51.368;6.788;2022-10-20T23:15:58;22.30;;;12.88;;
11931;SDS011;6025;51.368;6.788;2022-10-20T23:20:50;16.42;;;12.55;;
11931;SDS011;6025;51.368;6.788;2022-10-20T23:25:41;18.67;;;12.93;;
11931;SDS011;6025;51.368;6.788;2022-10-20T23:30:33;17.05;;;12.63;;
11931;SDS011;6025;51.368;6.788;2022-10-20T23:35:26;19.25;;;13.82;;
11931;SDS011;6025;51.368;6.788;2022-10-20T23:40:18;18.30;;;13.57;;
11931;SDS011;6025;51.368;6.788;2022-10-20T23:45:09;20.83;;;13.80;;
11931;SDS011;6025;51.368;6.788;2022-10-20T23:50:01;17.33;;;13.60;;
11931;SDS011;6025;51.368;6.788;2022-10-20T23:54:53;19.45;;;13.45;;
11931;SDS011;6025;51.368;6.788;2022-10-20T23:59:45;19.98;;;13.35;;
